createdAt,value
2022-11-10T00:01:06.707Z,100.00
2022-11-10T00:03:34.640Z,100.00
2022-11-10T00:06:08.556Z,100.00
2022-11-10T00:08:35.104Z,100.00
2022-11-10T00:11:07.907Z,100.00
2022-11-10T00:13:56.339Z,100.00
2022-11-10T00:16:41.182Z,100.00
2022-11-10T00:19:07.981Z,100.00
2022-11-10T00:21:34.277Z,100.00
2022-11-10T00:24:00.559Z,100.00
2022-11-10T00:26:26.934Z,100.00
2022-11-10T00:28:54.992Z,100.00
2022-11-10T00:31:21.263Z,100.00
2022-11-10T00:33:47.547Z,100.00
2022-11-10T00:36:13.914Z,100.00
2022-11-10T00:38:40.223Z,100.00
2022-11-10T00:41:06.644Z,100.00
2022-11-10T00:43:33.663Z,100.00
2022-11-10T00:46:00.443Z,100.00
2022-11-10T00:48:26.748Z,100.00
2022-11-10T00:50:53.074Z,100.00
2022-11-10T00:53:19.750Z,100.00
2022-11-10T00:55:46.320Z,100.00
2022-11-10T00:58:12.840Z,100.00
2022-11-10T01:00:39.158Z,100.00
2022-11-10T01:06:52.774Z,100.00
2022-11-10T01:09:19.229Z,100.00
2022-11-10T01:11:45.550Z,100.00
2022-11-10T01:14:11.831Z,100.00
2022-11-10T01:16:38.160Z,100.00
2022-11-10T01:19:04.530Z,100.00
2022-11-10T01:21:30.898Z,100.00
2022-11-10T01:23:57.769Z,100.00
2022-11-10T01:26:24.558Z,100.00
2022-11-10T01:28:50.966Z,100.00
2022-11-10T01:31:20.474Z,100.00
2022-11-10T01:33:47.195Z,100.00
2022-11-10T01:36:14.217Z,100.00
2022-11-10T01:38:42.557Z,100.00
2022-11-10T01:41:12.142Z,100.00
2022-11-10T01:43:38.725Z,100.00
2022-11-10T01:46:07.570Z,100.00
2022-11-10T01:48:49.696Z,100.00
2022-11-10T01:51:28.343Z,100.00
2022-11-10T01:54:00.948Z,100.00
2022-11-10T01:56:31.978Z,100.00
2022-11-10T01:59:02.963Z,100.00
2022-11-10T02:01:30.565Z,100.00
2022-11-10T02:04:04.683Z,100.00
2022-11-10T02:06:34.890Z,100.00
2022-11-10T02:09:01.379Z,100.00
2022-11-10T02:11:28.891Z,100.00
2022-11-10T02:13:55.459Z,100.00
2022-11-10T02:16:22.433Z,100.00
2022-11-10T02:18:49.394Z,100.00
2022-11-10T02:21:20.076Z,100.00
2022-11-10T02:23:49.375Z,100.00
2022-11-10T02:26:34.848Z,100.00
2022-11-10T02:29:01.151Z,100.00
2022-11-10T02:31:27.537Z,100.00
2022-11-10T02:33:53.863Z,100.00
2022-11-10T02:36:20.261Z,100.00
2022-11-10T02:38:46.535Z,100.00
2022-11-10T02:41:12.879Z,100.00
2022-11-10T02:43:39.418Z,100.00
2022-11-10T02:46:05.966Z,100.00
2022-11-10T02:48:32.381Z,100.00
2022-11-10T02:50:58.690Z,100.00
2022-11-10T02:53:25.174Z,100.00
2022-11-10T02:55:51.614Z,100.00
2022-11-10T02:58:17.948Z,100.00
2022-11-10T03:00:44.390Z,100.00
2022-11-10T03:03:10.717Z,100.00
2022-11-10T03:05:37.013Z,100.00
2022-11-10T03:08:04.351Z,100.00
2022-11-10T03:10:31.443Z,100.00
2022-11-10T03:12:59.711Z,100.00
2022-11-10T03:15:26.535Z,100.00
2022-11-10T03:17:53.185Z,100.00
2022-11-10T03:20:20.262Z,100.00
2022-11-10T03:22:47.271Z,100.00
2022-11-10T03:25:13.752Z,100.00
2022-11-10T03:27:40.075Z,100.00
2022-11-10T03:30:07.435Z,100.00
2022-11-10T03:32:33.774Z,100.00
2022-11-10T03:35:00.090Z,100.00
2022-11-10T03:37:26.410Z,100.00
2022-11-10T03:39:52.722Z,100.00
2022-11-10T03:42:19.047Z,100.00
2022-11-10T03:44:45.349Z,100.00
2022-11-10T03:47:11.642Z,100.00
2022-11-10T03:49:37.990Z,100.00
2022-11-10T03:52:04.446Z,100.00
2022-11-10T03:54:30.726Z,100.00
2022-11-10T03:56:57.069Z,100.00
2022-11-10T03:59:23.362Z,100.00
2022-11-10T04:01:50.073Z,100.00
2022-11-10T04:04:34.799Z,100.00
2022-11-10T04:07:19.523Z,100.00
2022-11-10T04:09:45.830Z,100.00
2022-11-10T04:12:30.451Z,100.00
2022-11-10T04:15:15.412Z,100.00
2022-11-10T04:17:41.703Z,100.00
2022-11-10T04:20:08.458Z,100.00
2022-11-10T04:22:53.411Z,100.00
2022-11-10T04:25:19.817Z,100.00
2022-11-10T04:27:46.112Z,100.00
2022-11-10T04:30:12.585Z,100.00
2022-11-10T04:32:38.918Z,100.00
2022-11-10T04:35:05.322Z,100.00
2022-11-10T04:37:31.649Z,100.00
2022-11-10T04:39:57.927Z,100.00
2022-11-10T04:42:24.197Z,100.00
2022-11-10T04:44:50.517Z,100.00
2022-11-10T04:47:16.805Z,100.00
2022-11-10T04:49:43.207Z,100.00
2022-11-10T04:52:09.573Z,100.00
2022-11-10T04:54:35.850Z,100.00
2022-11-10T04:57:02.204Z,100.00
2022-11-10T04:59:28.534Z,100.00
2022-11-10T05:01:55.565Z,100.00
2022-11-10T05:04:22.159Z,100.00
2022-11-10T05:06:48.569Z,100.00
2022-11-10T05:09:14.967Z,100.00
2022-11-10T05:11:41.261Z,100.00
2022-11-10T05:14:07.542Z,100.00
2022-11-10T05:16:33.839Z,100.00
2022-11-10T05:19:00.220Z,100.00
2022-11-10T05:21:26.569Z,100.00
2022-11-10T05:23:52.909Z,100.00
2022-11-10T05:26:19.648Z,100.00
2022-11-10T05:28:46.188Z,100.00
2022-11-10T05:31:12.824Z,100.00
2022-11-10T05:33:39.391Z,100.00
2022-11-10T05:36:07.069Z,100.00
2022-11-10T05:38:35.651Z,100.00
2022-11-10T05:41:05.417Z,100.00
2022-11-10T05:43:31.762Z,100.00
2022-11-10T05:45:58.044Z,100.00
2022-11-10T05:48:24.344Z,100.00
2022-11-10T05:50:50.679Z,100.00
2022-11-10T05:53:17.017Z,100.00
2022-11-10T05:55:43.371Z,100.00
2022-11-10T05:58:09.746Z,100.00
2022-11-10T06:00:36.476Z,100.00
2022-11-10T06:03:04.400Z,100.00
2022-11-10T06:05:33.113Z,100.00
2022-11-10T06:08:00.156Z,100.00
2022-11-10T06:10:27.144Z,100.00
2022-11-10T06:12:53.717Z,100.00
2022-11-10T06:15:20.956Z,100.00
2022-11-10T06:17:47.361Z,100.00
2022-11-10T06:20:14.450Z,100.00
2022-11-10T06:22:41.336Z,100.00
2022-11-10T06:25:08.799Z,100.00
2022-11-10T06:27:35.187Z,100.00
2022-11-10T06:30:01.764Z,100.00
2022-11-10T06:32:28.090Z,100.00
2022-11-10T06:34:59.303Z,100.00
2022-11-10T06:37:26.875Z,100.00
2022-11-10T06:39:53.246Z,100.00
2022-11-10T06:42:19.613Z,100.00
2022-11-10T06:44:45.949Z,100.00
2022-11-10T06:47:12.320Z,100.00
2022-11-10T06:49:38.797Z,100.00
2022-11-10T06:52:05.191Z,100.00
2022-11-10T06:54:31.464Z,100.00
2022-11-10T06:56:57.843Z,100.00
2022-11-10T06:59:24.143Z,100.00
2022-11-10T07:01:50.517Z,100.00
2022-11-10T07:04:20.994Z,100.00
2022-11-10T07:06:47.783Z,100.00
2022-11-10T07:09:14.642Z,100.00
2022-11-10T07:11:41.044Z,100.00
2022-11-10T07:14:07.387Z,100.00
2022-11-10T07:16:33.673Z,100.00
2022-11-10T07:18:59.971Z,100.00
2022-11-10T07:21:26.278Z,100.00
2022-11-10T07:23:52.548Z,100.00
2022-11-10T07:26:19.107Z,100.00
2022-11-10T07:28:45.415Z,100.00
2022-11-10T07:31:11.838Z,100.00
2022-11-10T07:33:38.139Z,100.00
2022-11-10T07:36:04.987Z,100.00
2022-11-10T07:38:31.280Z,100.00
2022-11-10T07:40:57.658Z,100.00
2022-11-10T07:43:25.765Z,100.00
2022-11-10T07:45:53.076Z,100.00
2022-11-10T07:48:19.780Z,100.00
2022-11-10T07:50:46.544Z,100.00
2022-11-10T07:53:14.757Z,100.00
2022-11-10T07:55:44.818Z,100.00
2022-11-10T07:58:13.747Z,100.00
2022-11-10T08:00:41.489Z,100.00
2022-11-10T08:03:13.578Z,100.00
2022-11-10T08:05:40.142Z,100.00
2022-11-10T08:08:08.953Z,100.00
2022-11-10T08:10:35.924Z,100.00
2022-11-10T08:13:05.015Z,100.00
2022-11-10T08:15:32.591Z,100.00
2022-11-10T08:18:01.028Z,100.00
2022-11-10T08:20:27.980Z,100.00
2022-11-10T08:22:59.430Z,100.00
2022-11-10T08:25:33.195Z,100.00
2022-11-10T08:28:03.279Z,100.00
2022-11-10T08:30:30.343Z,100.00
2022-11-10T08:32:58.583Z,100.00
2022-11-10T08:35:26.138Z,100.00
2022-11-10T08:37:52.909Z,100.00
2022-11-10T08:40:20.550Z,100.00
2022-11-10T08:42:47.506Z,100.00
2022-11-10T08:45:14.537Z,100.00
2022-11-10T08:47:40.979Z,100.00
2022-11-10T08:50:08.155Z,100.00
2022-11-10T08:52:34.574Z,100.00
2022-11-10T08:55:00.965Z,100.00
2022-11-10T08:57:27.327Z,100.00
2022-11-10T08:59:53.593Z,100.00
2022-11-10T09:02:20.121Z,100.00
2022-11-10T09:04:46.487Z,100.00
2022-11-10T09:07:12.907Z,100.00
2022-11-10T09:09:39.289Z,100.00
2022-11-10T09:12:05.756Z,100.00
2022-11-10T09:14:33.248Z,100.00
2022-11-10T09:16:59.656Z,100.00
2022-11-10T09:19:25.968Z,100.00
2022-11-10T09:21:52.287Z,100.00
2022-11-10T09:24:18.566Z,100.00
2022-11-10T09:26:47.472Z,100.00
2022-11-10T09:29:13.825Z,100.00
2022-11-10T09:31:40.125Z,100.00
2022-11-10T09:34:06.523Z,100.00
2022-11-10T09:36:32.812Z,100.00
2022-11-10T09:38:59.095Z,100.00
2022-11-10T09:41:26.570Z,100.00
2022-11-10T09:44:05.714Z,100.00
2022-11-10T09:46:41.832Z,100.00
2022-11-10T09:50:06.667Z,100.00
2022-11-10T09:52:36.987Z,100.00
2022-11-10T09:55:18.742Z,100.00
2022-11-10T09:57:49.082Z,100.00
2022-11-10T10:00:17.318Z,100.00
2022-11-10T10:02:59.289Z,100.00
2022-11-10T10:05:51.576Z,100.00
2022-11-10T10:08:32.842Z,100.00
2022-11-10T10:11:36.321Z,100.00
2022-11-10T10:14:36.278Z,100.00
2022-11-10T10:17:11.410Z,100.00
2022-11-10T10:19:45.399Z,100.00
2022-11-10T10:22:17.413Z,100.00
2022-11-10T10:24:43.799Z,100.00
2022-11-10T10:27:18.665Z,100.00
2022-11-10T10:29:51.319Z,100.00
2022-11-10T10:32:19.467Z,100.00
2022-11-10T10:34:46.595Z,96.86
2022-11-10T10:37:23.054Z,98.60
2022-11-10T10:39:51.803Z,97.32
2022-11-10T10:42:36.281Z,95.70
2022-11-10T10:45:15.572Z,94.07
2022-11-10T10:47:43.016Z,94.03
2022-11-10T10:50:27.867Z,88.36
2022-11-10T10:53:12.498Z,87.60
2022-11-10T10:55:44.390Z,86.82
2022-11-10T10:58:30.791Z,85.93
2022-11-10T11:01:25.223Z,87.75
2022-11-10T11:03:53.203Z,86.33
2022-11-10T11:06:26.969Z,88.34
2022-11-10T11:09:15.330Z,88.23
2022-11-10T11:11:58.498Z,83.26
2022-11-10T11:14:27.969Z,84.21
2022-11-10T11:17:22.450Z,83.70
2022-11-10T11:19:59.612Z,84.35
2022-11-10T11:23:05.084Z,83.02
2022-11-10T11:25:31.327Z,85.61
2022-11-10T11:28:29.685Z,87.51
2022-11-10T11:31:21.359Z,88.03
2022-11-10T11:34:02.852Z,89.18
2022-11-10T11:36:52.756Z,85.59
2022-11-10T11:39:49.906Z,83.45
2022-11-10T11:42:57.446Z,83.20
2022-11-10T11:45:49.992Z,84.39
2022-11-10T11:48:33.094Z,80.65
2022-11-10T11:51:12.688Z,81.00
2022-11-10T11:54:05.212Z,78.10
2022-11-10T11:56:37.812Z,77.57
2022-11-10T11:59:18.693Z,80.08
2022-11-10T12:02:26.332Z,80.03
2022-11-10T12:05:38.122Z,78.07
2022-11-10T12:08:22.415Z,76.72
2022-11-10T12:10:54.905Z,78.02
2022-11-10T12:13:36.961Z,78.00
2022-11-10T12:16:30.781Z,76.33
2022-11-10T12:19:40.199Z,78.14
2022-11-10T12:22:30.351Z,77.92
2022-11-10T12:25:14.024Z,78.76
2022-11-10T12:27:50.431Z,80.89
2022-11-10T12:30:18.182Z,81.59
2022-11-10T12:32:52.422Z,83.05
2022-11-10T12:35:28.289Z,80.94
2022-11-10T12:38:21.667Z,83.01
2022-11-10T12:40:57.406Z,83.46
2022-11-10T12:43:39.587Z,85.48
2022-11-10T12:46:11.897Z,84.59
2022-11-10T12:49:05.907Z,85.18
2022-11-10T12:52:03.827Z,88.20
2022-11-10T12:54:30.364Z,90.41
2022-11-10T12:57:01.520Z,88.83
2022-11-10T12:59:39.987Z,88.82
2022-11-10T13:02:24.453Z,89.71
2022-11-10T13:05:12.061Z,88.13
2022-11-10T13:07:38.423Z,91.38
2022-11-10T13:10:24.269Z,89.91
2022-11-10T13:13:06.217Z,91.10
2022-11-10T13:15:35.587Z,93.69
2022-11-10T13:18:02.211Z,91.71
2022-11-10T13:20:51.462Z,92.59
2022-11-10T13:23:21.997Z,91.21
2022-11-10T13:25:55.432Z,91.55
2022-11-10T13:28:46.717Z,92.79
2022-11-10T13:31:28.071Z,95.11
2022-11-10T13:34:11.476Z,95.07
2022-11-10T13:36:46.576Z,95.26
2022-11-10T13:39:18.927Z,93.92
2022-11-10T13:41:51.120Z,95.58
2022-11-10T13:44:23.847Z,94.67
2022-11-10T13:47:08.810Z,94.33
2022-11-10T13:49:54.982Z,95.12
2022-11-10T13:52:51.781Z,91.38
2022-11-10T13:55:50.486Z,93.68
2022-11-10T13:58:27.214Z,96.63
2022-11-10T14:01:15.261Z,93.15
2022-11-10T14:03:53.195Z,95.89
2022-11-10T14:06:28.032Z,93.25
2022-11-10T14:09:20.095Z,94.54
2022-11-10T14:11:52.636Z,95.52
2022-11-10T14:14:27.051Z,93.00
2022-11-10T14:16:54.555Z,95.00
2022-11-10T14:19:37.602Z,93.33
2022-11-10T14:22:16.315Z,93.18
2022-11-10T14:24:54.062Z,93.92
2022-11-10T14:27:24.420Z,93.97
2022-11-10T14:30:03.652Z,96.50
2022-11-10T14:32:30.066Z,95.92
2022-11-10T14:34:57.593Z,93.26
2022-11-10T14:37:26.634Z,95.75
2022-11-10T14:39:56.204Z,95.72
2022-11-10T14:42:25.814Z,97.70
2022-11-10T14:45:16.723Z,98.64
2022-11-10T14:47:43.289Z,97.31
2022-11-10T14:50:22.856Z,95.82
2022-11-10T14:52:54.998Z,97.78
2022-11-10T14:55:29.625Z,98.30
2022-11-10T14:58:22.806Z,97.62
2022-11-10T15:00:49.625Z,99.86
2022-11-10T15:03:23.083Z,99.09
2022-11-10T15:05:49.557Z,99.79
2022-11-10T15:08:16.873Z,99.52
2022-11-10T15:10:48.550Z,99.60
2022-11-10T15:13:27.385Z,98.80
2022-11-10T15:16:20.871Z,100.00
2022-11-10T15:18:49.037Z,99.51
2022-11-10T15:21:16.935Z,100.00
2022-11-10T15:23:52.291Z,99.09
2022-11-10T15:26:25.977Z,99.48
2022-11-10T15:28:52.972Z,100.00
2022-11-10T15:31:28.442Z,100.00
2022-11-10T15:33:55.903Z,100.00
2022-11-10T15:36:22.161Z,100.00
2022-11-10T15:39:23.541Z,100.00
2022-11-10T15:41:56.706Z,100.00
2022-11-10T15:44:25.732Z,100.00
2022-11-10T15:49:38.220Z,100.00
2022-11-10T15:52:22.108Z,100.00
2022-11-10T15:54:50.346Z,100.00
2022-11-10T15:57:18.522Z,100.00
2022-11-10T15:59:45.487Z,100.00
2022-11-10T16:02:24.019Z,100.00
2022-11-10T16:04:59.533Z,100.00
2022-11-10T16:07:26.485Z,100.00
2022-11-10T16:09:52.785Z,100.00
2022-11-10T16:12:21.827Z,100.00
2022-11-10T16:14:51.310Z,100.00
2022-11-10T16:17:18.092Z,100.00
2022-11-10T16:19:46.057Z,100.00
2022-11-10T16:22:13.243Z,100.00
2022-11-10T16:24:40.300Z,100.00
2022-11-10T16:27:10.804Z,100.00
2022-11-10T16:29:37.165Z,100.00
2022-11-10T16:32:04.729Z,100.00
2022-11-10T16:34:31.380Z,100.00
2022-11-10T16:36:57.746Z,100.00
2022-11-10T16:39:25.196Z,100.00
2022-11-10T16:41:51.472Z,100.00
2022-11-10T16:44:25.059Z,100.00
2022-11-10T16:46:55.818Z,100.00
2022-11-10T16:49:34.033Z,100.00
2022-11-10T16:52:10.916Z,100.00
2022-11-10T16:54:37.245Z,100.00
2022-11-10T16:57:11.982Z,100.00
2022-11-10T16:59:38.383Z,100.00
2022-11-10T17:02:11.172Z,100.00
2022-11-10T17:04:37.452Z,100.00
2022-11-10T17:07:08.195Z,100.00
2022-11-10T17:09:34.948Z,100.00
2022-11-10T17:12:01.283Z,100.00
2022-11-10T17:14:27.581Z,100.00
2022-11-10T17:16:55.551Z,100.00
2022-11-10T17:19:25.838Z,100.00
2022-11-10T17:21:53.787Z,100.00
2022-11-10T17:24:20.937Z,100.00
2022-11-10T17:26:47.512Z,100.00
2022-11-10T17:29:17.320Z,100.00
2022-11-10T17:31:44.527Z,100.00
2022-11-10T17:34:10.871Z,100.00
2022-11-10T17:36:37.393Z,100.00
2022-11-10T17:39:04.060Z,100.00
2022-11-10T17:41:30.617Z,100.00
2022-11-10T17:43:56.919Z,100.00
2022-11-10T17:46:23.202Z,100.00
2022-11-10T17:48:49.718Z,100.00
2022-11-10T17:51:20.806Z,100.00
2022-11-10T17:53:47.246Z,100.00
2022-11-10T17:56:13.937Z,100.00
2022-11-10T17:58:40.339Z,100.00
2022-11-10T18:01:18.080Z,100.00
2022-11-10T18:03:45.745Z,100.00
2022-11-10T18:06:20.062Z,100.00
2022-11-10T18:08:47.352Z,100.00
2022-11-10T18:11:16.833Z,100.00
2022-11-10T18:13:43.624Z,100.00
2022-11-10T18:16:11.783Z,100.00
2022-11-10T18:18:38.517Z,100.00
2022-11-10T18:21:06.082Z,100.00
2022-11-10T18:23:32.715Z,100.00
2022-11-10T18:26:08.608Z,100.00
2022-11-10T18:28:35.556Z,100.00
2022-11-10T18:31:08.334Z,100.00
2022-11-10T18:33:34.989Z,100.00
2022-11-10T18:36:01.861Z,100.00
2022-11-10T18:38:28.753Z,100.00
2022-11-10T18:40:55.092Z,100.00
2022-11-10T18:43:21.760Z,100.00
2022-11-10T18:45:52.839Z,100.00
2022-11-10T18:48:19.153Z,100.00
2022-11-10T18:50:45.531Z,100.00
2022-11-10T18:53:11.802Z,100.00
2022-11-10T18:55:42.921Z,100.00
2022-11-10T18:58:11.612Z,100.00
2022-11-10T19:00:38.277Z,100.00
2022-11-10T19:03:04.648Z,100.00
2022-11-10T19:05:30.947Z,100.00
2022-11-10T19:07:57.291Z,100.00
2022-11-10T19:10:23.553Z,100.00
2022-11-10T19:12:49.859Z,100.00
2022-11-10T19:15:16.250Z,100.00
2022-11-10T19:17:42.570Z,100.00
2022-11-10T19:20:10.125Z,100.00
2022-11-10T19:22:36.595Z,100.00
2022-11-10T19:25:10.034Z,100.00
2022-11-10T19:27:36.391Z,100.00
2022-11-10T19:30:03.647Z,100.00
2022-11-10T19:32:29.964Z,100.00
2022-11-10T19:34:56.389Z,100.00
2022-11-10T19:37:22.846Z,100.00
2022-11-10T19:39:49.183Z,100.00
2022-11-10T19:42:15.487Z,100.00
2022-11-10T19:44:41.775Z,100.00
2022-11-10T19:47:08.144Z,100.00
2022-11-10T19:49:38.149Z,100.00
2022-11-10T19:52:04.471Z,100.00
2022-11-10T19:54:30.747Z,100.00
2022-11-10T19:56:57.048Z,100.00
2022-11-10T19:59:23.349Z,100.00
2022-11-10T20:01:49.749Z,100.00
2022-11-10T20:04:16.062Z,100.00
2022-11-10T20:06:42.405Z,100.00
2022-11-10T20:09:08.797Z,100.00
2022-11-10T20:11:35.111Z,100.00
2022-11-10T20:14:01.700Z,100.00
2022-11-10T20:16:28.066Z,100.00
2022-11-10T20:18:54.429Z,100.00
2022-11-10T20:21:23.388Z,100.00
2022-11-10T20:23:54.929Z,100.00
2022-11-10T20:26:22.346Z,100.00
2022-11-10T20:28:49.049Z,100.00
2022-11-10T20:31:21.366Z,100.00
2022-11-10T20:33:48.570Z,100.00
2022-11-10T20:36:21.326Z,100.00
2022-11-10T20:38:49.638Z,100.00
2022-11-10T20:41:18.677Z,100.00
2022-11-10T20:43:45.483Z,100.00
2022-11-10T20:46:33.405Z,100.00
2022-11-10T20:49:01.364Z,100.00
2022-11-10T20:51:27.691Z,100.00
2022-11-10T20:53:54.780Z,100.00
2022-11-10T20:56:25.339Z,100.00
2022-11-10T20:58:54.633Z,100.00
2022-11-10T21:01:20.973Z,100.00
2022-11-10T21:03:47.352Z,100.00
2022-11-10T21:06:13.691Z,100.00
2022-11-10T21:08:40.137Z,100.00
2022-11-10T21:11:06.986Z,100.00
2022-11-10T21:13:34.318Z,100.00
2022-11-10T21:16:03.486Z,100.00
2022-11-10T21:18:35.737Z,100.00
2022-11-10T21:21:02.973Z,100.00
2022-11-10T21:23:29.371Z,100.00
2022-11-10T21:25:57.674Z,100.00
2022-11-10T21:28:24.439Z,100.00
2022-11-10T21:30:51.314Z,100.00
2022-11-10T21:33:18.119Z,100.00
2022-11-10T21:35:44.905Z,100.00
2022-11-10T21:38:12.251Z,100.00
2022-11-10T21:40:38.918Z,100.00
2022-11-10T21:43:05.252Z,100.00
2022-11-10T21:45:31.561Z,100.00
2022-11-10T21:48:01.687Z,100.00
2022-11-10T21:50:28.774Z,100.00
2022-11-10T21:52:55.086Z,100.00
2022-11-10T21:55:21.433Z,100.00
2022-11-10T21:57:47.762Z,100.00
2022-11-10T22:00:14.604Z,100.00
2022-11-10T22:02:40.898Z,100.00
2022-11-10T22:05:07.579Z,100.00
2022-11-10T22:07:33.900Z,100.00
2022-11-10T22:10:18.665Z,100.00
2022-11-10T22:13:03.540Z,100.00
2022-11-10T22:15:48.216Z,100.00
2022-11-10T22:18:37.223Z,100.00
2022-11-10T22:21:05.203Z,100.00
2022-11-10T22:23:50.795Z,100.00
2022-11-10T22:26:17.774Z,100.00
2022-11-10T22:28:44.425Z,100.00
2022-11-10T22:31:11.769Z,100.00
2022-11-10T22:33:41.286Z,100.00
2022-11-10T22:36:11.716Z,100.00
2022-11-10T22:38:40.454Z,100.00
2022-11-10T22:41:30.977Z,100.00
2022-11-10T22:44:03.689Z,100.00
2022-11-10T22:46:37.848Z,100.00
2022-11-10T22:49:09.567Z,100.00
2022-11-10T22:51:37.658Z,100.00
2022-11-10T22:54:05.819Z,100.00
2022-11-10T22:56:33.399Z,100.00
2022-11-10T22:59:00.482Z,100.00
2022-11-10T23:01:27.375Z,100.00
2022-11-10T23:03:53.731Z,100.00
2022-11-10T23:06:20.549Z,100.00
2022-11-10T23:08:46.890Z,100.00
2022-11-10T23:11:16.154Z,100.00
2022-11-10T23:13:42.828Z,100.00
2022-11-10T23:16:16.905Z,100.00
2022-11-10T23:18:45.635Z,100.00
2022-11-10T23:21:14.456Z,100.00
2022-11-10T23:23:41.840Z,100.00
2022-11-10T23:26:19.972Z,100.00
2022-11-10T23:28:46.335Z,100.00
2022-11-10T23:31:21.150Z,100.00
2022-11-10T23:33:49.749Z,100.00
2022-11-10T23:36:18.359Z,100.00
2022-11-10T23:38:45.493Z,100.00
2022-11-10T23:41:26.051Z,100.00
2022-11-10T23:43:52.898Z,100.00
2022-11-10T23:46:19.190Z,100.00
2022-11-10T23:48:45.518Z,100.00
2022-11-10T23:51:13.656Z,100.00
2022-11-10T23:53:40.870Z,100.00
2022-11-10T23:56:10.937Z,100.00
2022-11-10T23:58:37.571Z,100.00
